createdAt,value
2023-01-01T00:02:23.805Z,66.59
2023-01-01T00:04:50.517Z,67.26
2023-01-01T00:07:17.103Z,68.20
2023-01-01T00:10:02.606Z,67.66
2023-01-01T00:12:29.319Z,67.98
2023-01-01T00:14:55.954Z,67.21
2023-01-01T00:17:22.477Z,67.78
2023-01-01T00:19:49.222Z,67.91
2023-01-01T00:22:52.710Z,67.63
2023-01-01T00:25:02.485Z,68.12
2023-01-01T00:27:29.064Z,66.98
2023-01-01T00:29:55.633Z,68.36
2023-01-01T00:32:22.966Z,67.69
2023-01-01T00:34:50.472Z,68.33
2023-01-01T00:37:18.483Z,67.49
2023-01-01T00:39:45.447Z,68.89
2023-01-01T00:42:12.137Z,67.21
2023-01-01T00:44:38.828Z,67.99
2023-01-01T00:47:05.596Z,67.75
2023-01-01T00:49:32.251Z,67.57
2023-01-01T00:51:58.817Z,68.71
2023-01-01T00:54:25.704Z,68.25
2023-01-01T00:56:52.405Z,67.17
2023-01-01T00:59:20.635Z,67.46
2023-01-01T01:01:50.643Z,66.87
2023-01-01T01:04:17.320Z,67.37
2023-01-01T01:06:44.127Z,68.53
2023-01-01T01:09:10.715Z,67.35
2023-01-01T01:11:37.356Z,67.96
2023-01-01T01:14:03.985Z,66.04
2023-01-01T01:16:33.154Z,67.03
2023-01-01T01:19:02.110Z,67.72
2023-01-01T01:21:30.730Z,68.56
2023-01-01T01:24:01.539Z,68.25
2023-01-01T01:26:31.343Z,68.18
2023-01-01T01:28:59.796Z,69.69
2023-01-01T01:31:32.066Z,70.13
2023-01-01T01:33:59.216Z,69.73
2023-01-01T01:36:26.913Z,69.73
2023-01-01T01:38:54.277Z,70.33
2023-01-01T01:41:28.762Z,70.21
2023-01-01T01:44:02.225Z,69.78
2023-01-01T01:46:42.968Z,69.72
2023-01-01T01:49:16.676Z,70.77
2023-01-01T01:51:44.333Z,71.04
2023-01-01T01:54:17.549Z,71.21
2023-01-01T01:56:55.018Z,71.48
2023-01-01T01:59:25.102Z,71.70
2023-01-01T02:01:52.907Z,71.01
2023-01-01T02:04:19.980Z,71.96
2023-01-01T02:06:47.365Z,73.15
2023-01-01T02:09:14.220Z,71.66
2023-01-01T02:11:40.952Z,72.58
2023-01-01T02:14:07.652Z,72.65
2023-01-01T02:16:45.775Z,73.00
2023-01-01T02:19:55.147Z,73.43
2023-01-01T02:22:36.783Z,72.43
2023-01-01T02:25:35.900Z,72.43
2023-01-01T02:28:46.569Z,72.10
2023-01-01T02:31:23.136Z,71.95
2023-01-01T02:33:53.459Z,72.04
2023-01-01T02:36:22.154Z,73.02
2023-01-01T02:38:53.181Z,72.79
2023-01-01T02:41:24.670Z,73.89
2023-01-01T02:43:52.003Z,73.05
2023-01-01T02:48:49.407Z,75.38
2023-01-01T02:51:43.281Z,75.31
2023-01-01T02:54:18.851Z,74.18
2023-01-01T02:57:00.474Z,75.40
2023-01-01T02:59:45.545Z,75.29
2023-01-01T03:02:22.493Z,75.14
2023-01-01T03:05:08.038Z,75.18
2023-01-01T03:07:41.803Z,74.99
2023-01-01T03:10:19.240Z,74.50
2023-01-01T03:13:08.980Z,74.23
2023-01-01T03:15:38.285Z,74.37
2023-01-01T03:18:13.729Z,75.24
2023-01-01T03:20:44.054Z,75.78
2023-01-01T03:23:17.864Z,74.71
2023-01-01T03:25:49.888Z,75.13
2023-01-01T03:28:22.661Z,75.65
2023-01-01T03:30:52.681Z,75.06
2023-01-01T03:33:22.943Z,74.40
2023-01-01T03:35:55.890Z,75.20
2023-01-01T03:38:50.502Z,75.79
2023-01-01T03:41:20.681Z,73.99
2023-01-01T03:44:04.022Z,74.54
2023-01-01T03:46:33.566Z,75.40
2023-01-01T03:49:04.232Z,74.27
2023-01-01T03:51:53.015Z,75.17
2023-01-01T03:54:38.026Z,74.35
2023-01-01T03:57:04.567Z,74.75
2023-01-01T03:59:40.434Z,74.88
2023-01-01T04:02:11.417Z,74.91
2023-01-01T04:04:38.712Z,74.61
2023-01-01T04:07:14.936Z,75.70
2023-01-01T04:09:47.930Z,76.20
2023-01-01T04:12:17.216Z,75.68
2023-01-01T04:14:44.011Z,75.80
2023-01-01T04:17:12.465Z,75.97
2023-01-01T04:19:39.447Z,74.93
2023-01-01T04:22:06.500Z,75.66
2023-01-01T04:24:33.073Z,75.30
2023-01-01T04:26:59.635Z,75.44
2023-01-01T04:29:26.401Z,75.66
2023-01-01T04:31:53.060Z,76.35
2023-01-01T04:34:19.716Z,76.44
2023-01-01T04:36:46.506Z,75.94
2023-01-01T04:39:13.117Z,75.75
2023-01-01T04:41:40.959Z,76.32
2023-01-01T04:44:08.358Z,76.56
2023-01-01T04:46:34.919Z,75.71
2023-01-01T04:49:01.679Z,76.15
2023-01-01T04:51:28.285Z,76.40
2023-01-01T04:53:54.982Z,75.91
2023-01-01T04:56:22.578Z,75.75
2023-01-01T04:58:50.038Z,76.47
2023-01-01T05:01:25.671Z,75.92
2023-01-01T05:03:52.902Z,76.48
2023-01-01T05:06:19.880Z,76.35
2023-01-01T05:08:49.688Z,76.92
2023-01-01T05:11:18.893Z,75.46
2023-01-01T05:13:48.194Z,75.73
2023-01-01T05:16:17.242Z,76.99
2023-01-01T05:18:45.066Z,75.89
2023-01-01T05:21:14.811Z,77.50
2023-01-01T05:23:42.015Z,76.69
2023-01-01T05:26:20.403Z,77.65
2023-01-01T05:28:48.095Z,77.78
2023-01-01T05:31:19.427Z,75.73
2023-01-01T05:33:46.801Z,76.36
2023-01-01T05:36:19.429Z,77.60
2023-01-01T05:38:46.979Z,77.65
2023-01-01T05:41:15.502Z,76.82
2023-01-01T05:43:42.886Z,76.95
2023-01-01T05:46:18.265Z,77.29
2023-01-01T05:48:45.284Z,76.47
2023-01-01T05:51:14.091Z,76.54
2023-01-01T05:53:40.988Z,77.26
2023-01-01T05:56:07.841Z,77.19
2023-01-01T05:58:35.740Z,76.84
2023-01-01T06:01:38.784Z,77.30
2023-01-01T06:04:10.000Z,77.82
2023-01-01T06:06:36.679Z,78.91
2023-01-01T06:09:04.903Z,78.24
2023-01-01T06:11:32.360Z,78.95
2023-01-01T06:14:00.338Z,78.06
2023-01-01T06:16:28.558Z,80.29
2023-01-01T06:18:55.261Z,81.03
2023-01-01T06:21:24.583Z,81.28
2023-01-01T06:23:51.724Z,81.65
2023-01-01T06:26:21.595Z,82.72
2023-01-01T06:28:49.084Z,82.96
2023-01-01T06:31:18.294Z,83.33
2023-01-01T06:33:45.416Z,84.99
2023-01-01T06:36:14.400Z,85.23
2023-01-01T06:38:44.435Z,84.96
2023-01-01T06:41:22.375Z,86.63
2023-01-01T06:43:49.226Z,88.00
2023-01-01T06:46:19.885Z,89.62
2023-01-01T06:48:48.623Z,90.13
2023-01-01T06:51:21.014Z,91.74
2023-01-01T06:53:51.741Z,90.99
2023-01-01T06:56:18.733Z,91.87
2023-01-01T06:58:45.613Z,91.94
2023-01-01T07:01:17.962Z,92.13
2023-01-01T07:03:49.888Z,93.24
2023-01-01T07:06:16.437Z,92.39
2023-01-01T07:08:43.041Z,93.43
2023-01-01T07:11:09.772Z,94.77
2023-01-01T07:13:36.293Z,97.20
2023-01-01T07:16:08.335Z,98.26
2023-01-01T07:18:39.149Z,98.97
2023-01-01T07:21:07.787Z,99.50
2023-01-01T07:23:35.651Z,100.00
2023-01-01T07:26:02.265Z,100.00
2023-01-01T07:28:28.816Z,100.00
2023-01-01T07:30:55.468Z,100.00
2023-01-01T07:33:24.183Z,100.00
2023-01-01T07:35:50.961Z,100.00
2023-01-01T07:38:17.562Z,100.00
2023-01-01T07:40:44.223Z,100.00
2023-01-01T07:43:12.668Z,100.00
2023-01-01T07:45:39.321Z,100.00
2023-01-01T07:48:06.153Z,100.00
2023-01-01T08:12:59.719Z,100.00
2023-01-01T08:15:26.355Z,100.00
2023-01-01T08:17:58.013Z,100.00
2023-01-01T08:20:25.715Z,100.00
2023-01-01T08:22:52.324Z,100.00
2023-01-01T08:25:19.110Z,100.00
2023-01-01T08:27:45.801Z,100.00
2023-01-01T08:30:15.508Z,100.00
2023-01-01T08:32:42.444Z,100.00
2023-01-01T08:35:09.686Z,100.00
2023-01-01T08:37:36.450Z,100.00
2023-01-01T08:40:03.310Z,100.00
2023-01-01T08:42:29.923Z,100.00
2023-01-01T08:44:56.632Z,100.00
2023-01-01T08:47:25.776Z,100.00
2023-01-01T08:49:52.681Z,100.00
2023-01-01T08:52:19.752Z,100.00
2023-01-01T08:54:46.311Z,100.00
2023-01-01T08:57:13.222Z,100.00
2023-01-01T08:59:39.767Z,100.00
2023-01-01T09:02:07.320Z,100.00
2023-01-01T09:04:34.384Z,100.00
2023-01-01T09:07:00.992Z,100.00
2023-01-01T09:09:31.701Z,100.00
2023-01-01T09:12:04.312Z,100.00
2023-01-01T09:14:31.071Z,100.00
2023-01-01T09:16:57.850Z,100.00
2023-01-01T09:19:24.430Z,100.00
2023-01-01T09:21:56.320Z,100.00
2023-01-01T09:24:23.153Z,100.00
2023-01-01T09:26:50.194Z,100.00
2023-01-01T09:29:18.654Z,100.00
2023-01-01T09:31:45.586Z,100.00
2023-01-01T09:34:12.754Z,100.00
2023-01-01T09:36:39.723Z,100.00
2023-01-01T09:39:06.566Z,100.00
2023-01-01T09:41:48.165Z,100.00
2023-01-01T09:44:48.895Z,100.00
2023-01-01T09:47:40.567Z,100.00
2023-01-01T09:50:19.316Z,100.00
2023-01-01T09:53:01.583Z,100.00
2023-01-01T09:55:54.096Z,100.00
2023-01-01T09:58:25.317Z,100.00
2023-01-01T10:00:54.791Z,100.00
2023-01-01T10:03:28.096Z,100.00
2023-01-01T10:06:16.425Z,100.00
2023-01-01T10:08:48.559Z,100.00
2023-01-01T10:11:37.388Z,100.00
2023-01-01T10:14:30.949Z,100.00
2023-01-01T10:17:01.525Z,100.00
2023-01-01T10:19:37.792Z,100.00
2023-01-01T10:22:09.247Z,100.00
2023-01-01T10:24:47.162Z,100.00
2023-01-01T10:27:26.456Z,100.00
2023-01-01T10:29:56.845Z,100.00
2023-01-01T10:32:35.443Z,100.00
2023-01-01T10:35:10.567Z,100.00
2023-01-01T10:37:38.106Z,100.00
2023-01-01T10:40:29.236Z,100.00
2023-01-01T10:42:58.227Z,100.00
2023-01-01T10:45:32.850Z,100.00
2023-01-01T10:48:20.497Z,99.68
2023-01-01T10:50:53.123Z,98.78
2023-01-01T10:53:37.812Z,98.39
2023-01-01T10:56:11.807Z,97.62
2023-01-01T10:58:41.488Z,96.58
2023-01-01T11:01:11.653Z,95.63
2023-01-01T11:03:52.573Z,94.65
2023-01-01T11:06:33.626Z,94.65
2023-01-01T11:09:06.947Z,92.90
2023-01-01T11:11:45.228Z,92.78
2023-01-01T11:14:25.668Z,91.30
2023-01-01T11:16:53.533Z,90.06
2023-01-01T11:19:32.052Z,91.11
2023-01-01T11:21:59.833Z,90.64
2023-01-01T11:24:29.283Z,90.75
2023-01-01T11:27:22.025Z,90.68
2023-01-01T11:29:49.085Z,89.66
2023-01-01T11:32:21.042Z,91.08
2023-01-01T11:35:02.993Z,90.86
2023-01-01T11:37:36.126Z,90.61
2023-01-01T11:40:04.531Z,90.02
2023-01-01T11:42:35.567Z,90.37
2023-01-01T11:45:11.408Z,89.05
2023-01-01T11:47:43.420Z,88.49
2023-01-01T11:50:36.675Z,89.75
2023-01-01T11:53:22.738Z,89.63
2023-01-01T11:55:55.023Z,87.25
2023-01-01T11:58:30.519Z,88.38
2023-01-01T12:01:03.822Z,87.82
2023-01-01T12:03:47.179Z,86.63
2023-01-01T12:06:23.639Z,88.51
2023-01-01T12:09:02.212Z,88.67
2023-01-01T12:11:41.734Z,88.28
2023-01-01T12:14:30.917Z,90.05
2023-01-01T12:17:05.571Z,87.90
2023-01-01T12:19:45.076Z,88.83
2023-01-01T12:22:19.341Z,89.39
2023-01-01T12:24:48.764Z,90.00
2023-01-01T12:27:57.671Z,89.30
2023-01-01T12:30:32.324Z,89.45
2023-01-01T12:33:22.551Z,90.96
2023-01-01T12:36:16.503Z,91.75
2023-01-01T12:38:52.118Z,92.64
2023-01-01T12:41:53.492Z,94.81
2023-01-01T12:44:41.814Z,93.73
2023-01-01T12:47:29.471Z,95.16
2023-01-01T12:50:08.274Z,95.06
2023-01-01T12:52:52.108Z,94.96
2023-01-01T12:55:47.381Z,95.62
2023-01-01T12:58:38.693Z,97.53
2023-01-01T13:01:22.342Z,95.89
2023-01-01T13:03:49.165Z,96.96
2023-01-01T13:06:24.887Z,96.20
2023-01-01T13:09:02.498Z,96.94
2023-01-01T13:11:29.414Z,98.27
2023-01-01T13:13:55.959Z,97.01
2023-01-01T13:16:38.701Z,97.69
2023-01-01T13:19:05.856Z,98.33
2023-01-01T13:21:32.711Z,98.12
2023-01-01T13:24:19.730Z,97.79
2023-01-01T13:26:46.983Z,97.03
2023-01-01T13:29:13.443Z,97.24
2023-01-01T13:31:42.983Z,97.18
2023-01-01T13:34:31.548Z,98.63
2023-01-01T13:37:10.165Z,97.89
2023-01-01T13:40:24.124Z,98.39
2023-01-01T13:42:57.397Z,99.18
2023-01-01T13:48:47.149Z,100.00
2023-01-01T13:54:41.642Z,99.82
2023-01-01T13:57:37.372Z,100.00
2023-01-01T14:00:23.297Z,100.00
2023-01-01T14:03:01.850Z,100.00
2023-01-01T14:05:36.280Z,100.00
2023-01-01T14:08:06.233Z,100.00
2023-01-01T14:10:37.212Z,100.00
2023-01-01T14:13:06.860Z,100.00
2023-01-01T14:15:36.744Z,100.00
2023-01-01T14:18:11.043Z,100.00
2023-01-01T14:20:46.430Z,100.00
2023-01-01T14:23:23.442Z,100.00
2023-01-01T14:25:50.461Z,100.00
2023-01-01T14:28:25.717Z,100.00
2023-01-01T14:30:53.695Z,100.00
2023-01-01T14:33:29.286Z,100.00
2023-01-01T14:35:58.809Z,100.00
2023-01-01T14:38:30.732Z,100.00
2023-01-01T14:41:15.846Z,100.00
2023-01-01T14:43:45.671Z,100.00
2023-01-01T14:46:27.528Z,100.00
2023-01-01T14:49:00.302Z,100.00
2023-01-01T14:51:29.453Z,100.00
2023-01-01T14:53:59.566Z,100.00
2023-01-01T14:56:30.732Z,100.00
2023-01-01T14:59:24.404Z,100.00
2023-01-01T15:02:15.647Z,100.00
2023-01-01T15:04:43.049Z,100.00
2023-01-01T15:07:38.959Z,100.00
2023-01-01T15:10:05.903Z,100.00
2023-01-01T15:12:34.678Z,100.00
2023-01-01T15:15:01.783Z,100.00
2023-01-01T15:17:28.361Z,100.00
2023-01-01T15:20:19.484Z,100.00
2023-01-01T15:22:46.272Z,100.00
2023-01-01T15:25:16.121Z,100.00
2023-01-01T15:27:44.501Z,100.00
2023-01-01T15:30:23.035Z,100.00
2023-01-01T15:32:49.807Z,100.00
2023-01-01T15:35:31.201Z,100.00
2023-01-01T15:38:10.386Z,100.00
2023-01-01T15:40:36.980Z,100.00
2023-01-01T15:43:03.499Z,100.00
2023-01-01T15:45:41.201Z,100.00
2023-01-01T15:48:25.428Z,100.00
2023-01-01T15:50:51.942Z,100.00
2023-01-01T15:53:27.555Z,100.00
2023-01-01T15:56:02.621Z,100.00
2023-01-01T15:58:35.746Z,100.00
2023-01-01T16:01:05.917Z,100.00
2023-01-01T16:03:36.026Z,100.00
2023-01-01T16:06:02.873Z,100.00
2023-01-01T16:08:29.512Z,100.00
2023-01-01T16:10:56.114Z,100.00
2023-01-01T16:13:22.699Z,100.00
2023-01-01T16:15:53.728Z,100.00
2023-01-01T16:18:28.760Z,100.00
2023-01-01T16:20:56.132Z,100.00
2023-01-01T16:23:22.778Z,100.00
2023-01-01T16:25:49.313Z,100.00
2023-01-01T16:28:16.091Z,100.00
2023-01-01T16:30:43.957Z,100.00
2023-01-01T16:33:19.419Z,100.00
2023-01-01T16:35:46.592Z,100.00
2023-01-01T16:38:13.156Z,100.00
2023-01-01T16:40:39.798Z,100.00
2023-01-01T16:43:09.732Z,100.00
2023-01-01T16:45:36.690Z,100.00
2023-01-01T16:48:03.275Z,100.00
2023-01-01T16:50:29.826Z,100.00
2023-01-01T16:52:56.451Z,100.00
2023-01-01T16:55:23.022Z,100.00
2023-01-01T16:57:49.644Z,100.00
2023-01-01T17:00:16.609Z,100.00
2023-01-01T17:02:43.328Z,100.00
2023-01-01T17:05:10.946Z,100.00
2023-01-01T17:07:37.503Z,100.00
2023-01-01T17:10:04.852Z,100.00
2023-01-01T17:12:31.993Z,100.00
2023-01-01T17:14:58.581Z,100.00
2023-01-01T17:17:25.195Z,100.00
2023-01-01T17:19:51.819Z,100.00
2023-01-01T17:22:18.450Z,100.00
2023-01-01T17:24:45.059Z,100.00
2023-01-01T17:27:11.639Z,100.00
2023-01-01T17:29:38.153Z,100.00
2023-01-01T17:32:05.062Z,100.00
2023-01-01T17:34:31.576Z,100.00
2023-01-01T17:36:58.209Z,100.00
2023-01-01T17:39:24.809Z,100.00
2023-01-01T17:41:51.365Z,100.00
2023-01-01T17:44:18.216Z,100.00
2023-01-01T17:46:44.922Z,100.00
2023-01-01T17:49:11.665Z,100.00
2023-01-01T17:51:39.490Z,100.00
2023-01-01T17:54:10.207Z,100.00
2023-01-01T17:56:36.792Z,100.00
2023-01-01T17:59:03.470Z,100.00
2023-01-01T18:01:32.280Z,100.00
2023-01-01T18:04:01.934Z,100.00
2023-01-01T18:06:30.371Z,100.00
2023-01-01T18:09:05.174Z,100.00
2023-01-01T18:11:33.294Z,100.00
2023-01-01T18:14:02.013Z,100.00
2023-01-01T18:16:30.200Z,100.00
2023-01-01T18:19:00.965Z,100.00
2023-01-01T18:21:27.830Z,100.00
2023-01-01T18:23:56.692Z,100.00
2023-01-01T18:26:26.334Z,100.00
2023-01-01T18:28:54.667Z,100.00
2023-01-01T18:31:23.202Z,100.00
2023-01-01T18:33:50.646Z,100.00
2023-01-01T18:36:20.127Z,100.00
2023-01-01T18:38:58.904Z,100.00
2023-01-01T18:41:31.596Z,100.00
2023-01-01T18:44:00.141Z,100.00
2023-01-01T18:46:29.290Z,100.00
2023-01-01T18:48:59.414Z,100.00
2023-01-01T18:51:26.327Z,100.00
2023-01-01T18:53:58.533Z,100.00
2023-01-01T18:56:25.789Z,100.00
2023-01-01T18:58:56.659Z,100.00
2023-01-01T19:01:24.606Z,100.00
2023-01-01T19:03:55.169Z,100.00
2023-01-01T19:06:27.392Z,100.00
2023-01-01T19:09:25.292Z,100.00
2023-01-01T19:11:56.191Z,100.00
2023-01-01T19:14:25.230Z,100.00
2023-01-01T19:16:56.240Z,100.00
2023-01-01T19:19:25.014Z,100.00
2023-01-01T19:22:01.695Z,100.00
2023-01-01T19:24:31.432Z,100.00
2023-01-01T19:27:15.206Z,100.00
2023-01-01T19:29:45.290Z,100.00
2023-01-01T19:32:12.003Z,100.00
2023-01-01T19:34:39.818Z,100.00
2023-01-01T19:37:07.827Z,100.00
2023-01-01T19:39:35.224Z,100.00
2023-01-01T19:42:07.046Z,100.00
2023-01-01T19:44:35.902Z,100.00
2023-01-01T19:47:05.060Z,100.00
2023-01-01T19:49:32.393Z,100.00
2023-01-01T19:51:58.997Z,100.00
2023-01-01T19:54:26.822Z,100.00
2023-01-01T19:56:53.534Z,100.00
2023-01-01T19:59:20.315Z,100.00
2023-01-01T20:01:57.656Z,100.00
2023-01-01T20:04:33.467Z,100.00
2023-01-01T20:07:00.048Z,100.00
2023-01-01T20:09:26.539Z,100.00
2023-01-01T20:11:53.119Z,100.00
2023-01-01T20:14:19.701Z,100.00
2023-01-01T20:16:47.269Z,100.00
2023-01-01T20:19:13.826Z,100.00
2023-01-01T20:21:59.337Z,100.00
2023-01-01T20:24:25.852Z,100.00
2023-01-01T20:26:52.371Z,100.00
2023-01-01T20:29:21.923Z,100.00
2023-01-01T20:31:51.179Z,100.00
2023-01-01T20:34:17.951Z,100.00
2023-01-01T20:37:03.185Z,100.00
2023-01-01T20:39:29.944Z,100.00
2023-01-01T20:41:56.781Z,100.00
2023-01-01T20:44:23.493Z,100.00
2023-01-01T20:46:50.092Z,100.00
2023-01-01T20:49:20.323Z,100.00
2023-01-01T20:51:49.734Z,100.00
2023-01-01T20:54:16.291Z,100.00
2023-01-01T20:56:42.918Z,100.00
2023-01-01T20:59:33.423Z,100.00
2023-01-01T21:01:59.805Z,100.00
2023-01-01T21:04:26.672Z,100.00
2023-01-01T21:06:53.276Z,99.94
2023-01-01T21:09:19.791Z,100.00
2023-01-01T21:11:46.689Z,100.00
2023-01-01T21:14:13.363Z,97.96
2023-01-01T21:16:43.216Z,98.12
2023-01-01T21:19:10.424Z,97.54
2023-01-01T21:21:47.118Z,97.88
2023-01-01T21:24:24.916Z,97.29
2023-01-01T21:27:00.051Z,96.70
2023-01-01T21:29:32.262Z,96.39
2023-01-01T21:32:21.992Z,94.58
2023-01-01T21:34:50.567Z,94.28
2023-01-01T21:37:48.344Z,95.10
2023-01-01T21:40:33.031Z,93.66
2023-01-01T21:43:13.214Z,93.27
2023-01-01T21:45:43.840Z,94.11
2023-01-01T21:48:23.900Z,92.85
2023-01-01T21:50:52.067Z,92.90
2023-01-01T21:53:22.039Z,91.82
2023-01-01T21:55:54.626Z,93.22
2023-01-01T21:58:51.215Z,92.95
2023-01-01T22:01:30.416Z,92.05
2023-01-01T22:04:19.894Z,91.65
2023-01-01T22:06:51.188Z,91.30
2023-01-01T22:09:22.413Z,91.79
2023-01-01T22:11:51.037Z,90.58
2023-01-01T22:14:20.862Z,90.56
2023-01-01T22:16:52.263Z,91.14
2023-01-01T22:19:21.734Z,90.66
2023-01-01T22:21:49.399Z,90.07
2023-01-01T22:24:26.286Z,91.65
2023-01-01T22:26:52.918Z,90.87
2023-01-01T22:29:24.586Z,92.12
2023-01-01T22:32:21.523Z,90.38
2023-01-01T22:34:48.799Z,90.85
2023-01-01T22:37:21.978Z,90.96
2023-01-01T22:39:49.910Z,90.40
2023-01-01T22:42:18.691Z,91.06
2023-01-01T22:44:54.739Z,89.51
2023-01-01T22:47:21.496Z,90.40
2023-01-01T22:49:52.602Z,90.01
2023-01-01T22:52:19.174Z,91.41
2023-01-01T22:54:45.731Z,91.98
2023-01-01T22:57:12.300Z,91.09
2023-01-01T22:59:38.841Z,92.06
2023-01-01T23:02:06.692Z,91.43
2023-01-01T23:04:33.482Z,90.75
2023-01-01T23:07:00.549Z,91.12
2023-01-01T23:09:27.332Z,91.43
2023-01-01T23:11:55.158Z,91.48
2023-01-01T23:14:40.425Z,92.03
2023-01-01T23:17:07.236Z,91.80
2023-01-01T23:19:33.955Z,93.35
2023-01-01T23:22:03.879Z,93.35
2023-01-01T23:24:31.497Z,94.16
2023-01-01T23:27:00.122Z,93.53
2023-01-01T23:29:30.723Z,93.43
2023-01-01T23:31:57.933Z,92.29
2023-01-01T23:34:24.814Z,92.60
2023-01-01T23:36:53.866Z,91.87
2023-01-01T23:39:20.385Z,92.34
2023-01-01T23:41:47.313Z,92.80
2023-01-01T23:44:13.827Z,93.12
2023-01-01T23:46:40.646Z,92.13
2023-01-01T23:49:08.021Z,91.87
2023-01-01T23:51:35.408Z,92.40
2023-01-01T23:54:02.111Z,92.19
2023-01-01T23:56:28.648Z,92.56
2023-01-01T23:58:55.244Z,92.42
